sensor_id;sensor_type;location;lat;lon;timestamp;temperature;humidity
13086;DHT22;6609;49.882;8.664;2022-09-30T00:01:26;8.80;79.40
13086;DHT22;6609;49.882;8.664;2022-09-30T00:06:22;8.70;79.30
13086;DHT22;6609;49.882;8.664;2022-09-30T00:08:49;8.70;79.30
13086;DHT22;6609;49.882;8.664;2022-09-30T00:11:19;8.60;79.30
13086;DHT22;6609;49.882;8.664;2022-09-30T00:13:49;8.70;79.30
13086;DHT22;6609;49.882;8.664;2022-09-30T00:16:17;8.70;79.30
13086;DHT22;6609;49.882;8.664;2022-09-30T00:18:45;8.60;79.20
13086;DHT22;6609;49.882;8.664;2022-09-30T00:23:41;8.50;79.10
13086;DHT22;6609;49.882;8.664;2022-09-30T00:26:11;8.60;79.50
13086;DHT22;6609;49.882;8.664;2022-09-30T00:28:40;8.50;79.80
13086;DHT22;6609;49.882;8.664;2022-09-30T00:31:10;8.50;80.10
13086;DHT22;6609;49.882;8.664;2022-09-30T00:36:06;8.70;80.60
13086;DHT22;6609;49.882;8.664;2022-09-30T00:41:02;8.80;80.60
13086;DHT22;6609;49.882;8.664;2022-09-30T00:43:41;8.80;80.30
13086;DHT22;6609;49.882;8.664;2022-09-30T00:46:16;8.80;80.40
13086;DHT22;6609;49.882;8.664;2022-09-30T00:48:46;8.80;80.50
13086;DHT22;6609;49.882;8.664;2022-09-30T00:51:15;8.80;80.50
13086;DHT22;6609;49.882;8.664;2022-09-30T00:53:46;8.90;80.60
13086;DHT22;6609;49.882;8.664;2022-09-30T00:56:18;8.90;80.70
13086;DHT22;6609;49.882;8.664;2022-09-30T00:58:51;8.90;80.70
13086;DHT22;6609;49.882;8.664;2022-09-30T01:06:21;9.00;80.80
13086;DHT22;6609;49.882;8.664;2022-09-30T01:13:44;9.00;81.20
13086;DHT22;6609;49.882;8.664;2022-09-30T01:16:35;9.00;81.50
13086;DHT22;6609;49.882;8.664;2022-09-30T01:19:18;9.10;81.50
13086;DHT22;6609;49.882;8.664;2022-09-30T01:22:10;9.20;81.50
13086;DHT22;6609;49.882;8.664;2022-09-30T01:27:28;9.20;81.40
13086;DHT22;6609;49.882;8.664;2022-09-30T01:30:10;9.30;81.40
13086;DHT22;6609;49.882;8.664;2022-09-30T01:33:01;9.30;81.40
13086;DHT22;6609;49.882;8.664;2022-09-30T01:35:43;9.30;81.30
13086;DHT22;6609;49.882;8.664;2022-09-30T01:38:18;9.30;81.30
13086;DHT22;6609;49.882;8.664;2022-09-30T01:40:51;9.30;81.50
13086;DHT22;6609;49.882;8.664;2022-09-30T01:43:28;9.30;81.40
13086;DHT22;6609;49.882;8.664;2022-09-30T01:46:01;9.30;81.60
13086;DHT22;6609;49.882;8.664;2022-09-30T01:48:38;9.30;81.70
13086;DHT22;6609;49.882;8.664;2022-09-30T01:51:10;9.40;81.50
13086;DHT22;6609;49.882;8.664;2022-09-30T01:53:44;9.40;81.60
13086;DHT22;6609;49.882;8.664;2022-09-30T01:56:16;9.30;81.50
13086;DHT22;6609;49.882;8.664;2022-09-30T01:58:49;9.30;81.40
13086;DHT22;6609;49.882;8.664;2022-09-30T02:01:26;9.30;81.50
13086;DHT22;6609;49.882;8.664;2022-09-30T02:04:00;9.30;81.40
13086;DHT22;6609;49.882;8.664;2022-09-30T02:06:32;9.30;81.90
13086;DHT22;6609;49.882;8.664;2022-09-30T02:09:04;9.30;82.10
13086;DHT22;6609;49.882;8.664;2022-09-30T02:14:04;9.30;82.00
13086;DHT22;6609;49.882;8.664;2022-09-30T02:16:37;9.30;82.00
13086;DHT22;6609;49.882;8.664;2022-09-30T02:21:38;9.30;82.40
13086;DHT22;6609;49.882;8.664;2022-09-30T02:24:09;9.30;82.40
13086;DHT22;6609;49.882;8.664;2022-09-30T02:26:39;9.30;82.50
13086;DHT22;6609;49.882;8.664;2022-09-30T02:29:09;9.30;82.60
13086;DHT22;6609;49.882;8.664;2022-09-30T02:34:11;9.30;82.30
13086;DHT22;6609;49.882;8.664;2022-09-30T02:41:43;9.30;82.50
13086;DHT22;6609;49.882;8.664;2022-09-30T02:46:43;9.30;82.70
13086;DHT22;6609;49.882;8.664;2022-09-30T02:49:19;9.20;82.70
13086;DHT22;6609;49.882;8.664;2022-09-30T02:57:00;9.20;82.70
13086;DHT22;6609;49.882;8.664;2022-09-30T03:01:59;9.20;83.10
13086;DHT22;6609;49.882;8.664;2022-09-30T03:04:29;9.20;83.10
13086;DHT22;6609;49.882;8.664;2022-09-30T03:09:24;9.10;82.70
13086;DHT22;6609;49.882;8.664;2022-09-30T03:15:04;9.00;82.80
13086;DHT22;6609;49.882;8.664;2022-09-30T03:17:43;8.80;83.10
13086;DHT22;6609;49.882;8.664;2022-09-30T03:20:35;8.70;83.40
13086;DHT22;6609;49.882;8.664;2022-09-30T03:26:14;8.60;83.60
13086;DHT22;6609;49.882;8.664;2022-09-30T03:28:51;8.60;83.80
13086;DHT22;6609;49.882;8.664;2022-09-30T03:33:54;8.60;83.60
13086;DHT22;6609;49.882;8.664;2022-09-30T03:36:29;8.40;83.40
13086;DHT22;6609;49.882;8.664;2022-09-30T03:39:02;8.30;83.80
13086;DHT22;6609;49.882;8.664;2022-09-30T03:41:34;8.30;83.90
13086;DHT22;6609;49.882;8.664;2022-09-30T03:44:07;8.30;84.00
13086;DHT22;6609;49.882;8.664;2022-09-30T03:46:39;8.30;84.10
13086;DHT22;6609;49.882;8.664;2022-09-30T03:49:10;8.30;84.20
13086;DHT22;6609;49.882;8.664;2022-09-30T03:51:40;8.30;83.80
13086;DHT22;6609;49.882;8.664;2022-09-30T04:08:59;8.10;83.20
13086;DHT22;6609;49.882;8.664;2022-09-30T04:38:28;8.00;83.20
13086;DHT22;6609;49.882;8.664;2022-09-30T04:43:24;7.90;82.60
13086;DHT22;6609;49.882;8.664;2022-09-30T04:53:15;7.90;82.20
13086;DHT22;6609;49.882;8.664;2022-09-30T04:58:10;7.80;82.20
13086;DHT22;6609;49.882;8.664;2022-09-30T05:05:33;7.70;82.80
13086;DHT22;6609;49.882;8.664;2022-09-30T05:08:00;7.70;82.70
13086;DHT22;6609;49.882;8.664;2022-09-30T05:17:51;7.50;83.00
13086;DHT22;6609;49.882;8.664;2022-09-30T05:35:03;7.50;82.20
13086;DHT22;6609;49.882;8.664;2022-09-30T05:47:19;7.20;82.60
13086;DHT22;6609;49.882;8.664;2022-09-30T05:52:14;7.00;82.60
13086;DHT22;6609;49.882;8.664;2022-09-30T05:54:41;7.00;83.00
13086;DHT22;6609;49.882;8.664;2022-09-30T05:59:35;6.80;83.40
13086;DHT22;6609;49.882;8.664;2022-09-30T06:09:25;7.00;83.60
13086;DHT22;6609;49.882;8.664;2022-09-30T06:11:51;7.00;83.60
13086;DHT22;6609;49.882;8.664;2022-09-30T06:14:23;7.10;83.70
13086;DHT22;6609;49.882;8.664;2022-09-30T06:21:45;7.40;83.60
13086;DHT22;6609;49.882;8.664;2022-09-30T06:24:12;7.40;83.60
13086;DHT22;6609;49.882;8.664;2022-09-30T06:26:40;7.50;83.30
13086;DHT22;6609;49.882;8.664;2022-09-30T06:38:59;7.60;83.20
13086;DHT22;6609;49.882;8.664;2022-09-30T06:51:17;7.90;83.70
13086;DHT22;6609;49.882;8.664;2022-09-30T06:53:45;7.90;83.20
13086;DHT22;6609;49.882;8.664;2022-09-30T07:01:13;7.90;82.70
13086;DHT22;6609;49.882;8.664;2022-09-30T07:03:42;8.00;82.50
13086;DHT22;6609;49.882;8.664;2022-09-30T07:06:12;8.00;82.50
13086;DHT22;6609;49.882;8.664;2022-09-30T07:08:39;8.10;82.70
13086;DHT22;6609;49.882;8.664;2022-09-30T07:11:08;7.90;82.30
13086;DHT22;6609;49.882;8.664;2022-09-30T07:16:07;8.00;83.30
13086;DHT22;6609;49.882;8.664;2022-09-30T07:18:37;8.00;83.50
13086;DHT22;6609;49.882;8.664;2022-09-30T07:21:04;8.20;84.00
13086;DHT22;6609;49.882;8.664;2022-09-30T07:26:00;8.40;83.60
13086;DHT22;6609;49.882;8.664;2022-09-30T07:31:00;8.90;83.50
13086;DHT22;6609;49.882;8.664;2022-09-30T07:35:59;9.40;82.70
13086;DHT22;6609;49.882;8.664;2022-09-30T07:38:29;9.80;82.20
13086;DHT22;6609;49.882;8.664;2022-09-30T07:40:58;10.20;79.90
13086;DHT22;6609;49.882;8.664;2022-09-30T07:43:26;10.70;79.40
13086;DHT22;6609;49.882;8.664;2022-09-30T07:46:02;11.20;77.90
13086;DHT22;6609;49.882;8.664;2022-09-30T07:51:13;11.80;75.20
13086;DHT22;6609;49.882;8.664;2022-09-30T07:53:41;12.00;73.50
13086;DHT22;6609;49.882;8.664;2022-09-30T07:56:09;12.30;73.30
13086;DHT22;6609;49.882;8.664;2022-09-30T08:01:04;12.70;71.80
13086;DHT22;6609;49.882;8.664;2022-09-30T08:08:31;13.00;69.40
13086;DHT22;6609;49.882;8.664;2022-09-30T08:25:42;13.70;67.70
13086;DHT22;6609;49.882;8.664;2022-09-30T08:35:30;14.50;65.60
13086;DHT22;6609;49.882;8.664;2022-09-30T08:43:14;15.20;64.00
13086;DHT22;6609;49.882;8.664;2022-09-30T08:48:34;15.60;63.10
13086;DHT22;6609;49.882;8.664;2022-09-30T08:51:13;15.90;61.60
13086;DHT22;6609;49.882;8.664;2022-09-30T08:53:45;16.20;60.40
13086;DHT22;6609;49.882;8.664;2022-09-30T08:56:19;16.40;59.10
13086;DHT22;6609;49.882;8.664;2022-09-30T08:58:51;16.70;58.00
13086;DHT22;6609;49.882;8.664;2022-09-30T09:01:24;17.10;57.10
13086;DHT22;6609;49.882;8.664;2022-09-30T09:03:53;17.40;56.10
13086;DHT22;6609;49.882;8.664;2022-09-30T09:06:25;17.70;55.20
13086;DHT22;6609;49.882;8.664;2022-09-30T09:09:24;18.10;54.20
13086;DHT22;6609;49.882;8.664;2022-09-30T09:12:04;18.30;53.20
13086;DHT22;6609;49.882;8.664;2022-09-30T09:14:38;18.60;52.60
13086;DHT22;6609;49.882;8.664;2022-09-30T09:17:34;18.90;51.00
13086;DHT22;6609;49.882;8.664;2022-09-30T09:20:10;18.80;49.80
13086;DHT22;6609;49.882;8.664;2022-09-30T09:22:38;18.90;49.90
13086;DHT22;6609;49.882;8.664;2022-09-30T09:25:11;19.00;49.20
13086;DHT22;6609;49.882;8.664;2022-09-30T09:27:44;19.10;48.40
13086;DHT22;6609;49.882;8.664;2022-09-30T09:35:19;19.90;45.80
13086;DHT22;6609;49.882;8.664;2022-09-30T09:43:27;20.70;44.60
13086;DHT22;6609;49.882;8.664;2022-09-30T09:48:29;21.40;43.10
13086;DHT22;6609;49.882;8.664;2022-09-30T09:51:04;21.60;40.80
13086;DHT22;6609;49.882;8.664;2022-09-30T09:53:47;21.90;40.10
13086;DHT22;6609;49.882;8.664;2022-09-30T09:56:16;22.30;39.00
13086;DHT22;6609;49.882;8.664;2022-09-30T09:59:03;22.80;37.70
13086;DHT22;6609;49.882;8.664;2022-09-30T10:01:32;23.40;36.70
13086;DHT22;6609;49.882;8.664;2022-09-30T10:04:07;23.80;34.80
13086;DHT22;6609;49.882;8.664;2022-09-30T10:09:21;24.80;33.50
13086;DHT22;6609;49.882;8.664;2022-09-30T10:14:19;24.40;32.60
13086;DHT22;6609;49.882;8.664;2022-09-30T10:26:46;26.90;27.00
13086;DHT22;6609;49.882;8.664;2022-09-30T10:29:24;27.00;26.60
13086;DHT22;6609;49.882;8.664;2022-09-30T10:34:24;28.20;25.60
13086;DHT22;6609;49.882;8.664;2022-09-30T10:36:52;28.80;25.30
13086;DHT22;6609;49.882;8.664;2022-09-30T10:39:22;29.00;23.00
13086;DHT22;6609;49.882;8.664;2022-09-30T10:41:49;29.00;22.20
13086;DHT22;6609;49.882;8.664;2022-09-30T10:44:20;28.90;22.30
13086;DHT22;6609;49.882;8.664;2022-09-30T10:46:50;28.90;21.70
13086;DHT22;6609;49.882;8.664;2022-09-30T10:49:25;29.10;20.90
13086;DHT22;6609;49.882;8.664;2022-09-30T10:51:53;29.30;20.80
13086;DHT22;6609;49.882;8.664;2022-09-30T10:54:43;29.60;21.10
13086;DHT22;6609;49.882;8.664;2022-09-30T10:57:14;30.50;20.60
13086;DHT22;6609;49.882;8.664;2022-09-30T10:59:42;29.90;19.60
13086;DHT22;6609;49.882;8.664;2022-09-30T11:02:19;29.60;21.00
13086;DHT22;6609;49.882;8.664;2022-09-30T11:04:55;29.00;20.20
13086;DHT22;6609;49.882;8.664;2022-09-30T11:07:27;26.80;21.80
13086;DHT22;6609;49.882;8.664;2022-09-30T11:09:59;25.30;23.30
13086;DHT22;6609;49.882;8.664;2022-09-30T11:12:34;24.90;24.80
13086;DHT22;6609;49.882;8.664;2022-09-30T11:15:09;24.80;24.40
13086;DHT22;6609;49.882;8.664;2022-09-30T11:17:42;23.90;25.10
13086;DHT22;6609;49.882;8.664;2022-09-30T11:20:19;23.10;26.30
13086;DHT22;6609;49.882;8.664;2022-09-30T11:22:53;22.30;27.40
13086;DHT22;6609;49.882;8.664;2022-09-30T11:25:26;21.80;28.80
13086;DHT22;6609;49.882;8.664;2022-09-30T11:30:34;20.90;30.70
13086;DHT22;6609;49.882;8.664;2022-09-30T11:35:52;20.80;31.60
13086;DHT22;6609;49.882;8.664;2022-09-30T11:38:31;21.20;33.00
13086;DHT22;6609;49.882;8.664;2022-09-30T11:41:03;21.60;31.70
13086;DHT22;6609;49.882;8.664;2022-09-30T11:49:22;22.60;30.90
13086;DHT22;6609;49.882;8.664;2022-09-30T11:51:57;22.80;31.60
13086;DHT22;6609;49.882;8.664;2022-09-30T11:57:04;22.70;31.10
13086;DHT22;6609;49.882;8.664;2022-09-30T11:59:38;22.30;30.00
13086;DHT22;6609;49.882;8.664;2022-09-30T12:02:16;22.00;30.30
13086;DHT22;6609;49.882;8.664;2022-09-30T12:04:46;22.10;31.10
13086;DHT22;6609;49.882;8.664;2022-09-30T12:07:17;22.20;31.70
13086;DHT22;6609;49.882;8.664;2022-09-30T12:09:49;22.30;30.90
13086;DHT22;6609;49.882;8.664;2022-09-30T12:12:18;22.50;31.50
13086;DHT22;6609;49.882;8.664;2022-09-30T12:14:48;22.60;30.10
13086;DHT22;6609;49.882;8.664;2022-09-30T12:17:21;22.40;29.80
13086;DHT22;6609;49.882;8.664;2022-09-30T12:19:54;22.30;29.40
13086;DHT22;6609;49.882;8.664;2022-09-30T12:22:27;22.20;29.10
13086;DHT22;6609;49.882;8.664;2022-09-30T12:24:55;21.90;29.70
13086;DHT22;6609;49.882;8.664;2022-09-30T12:27:24;21.80;30.30
13086;DHT22;6609;49.882;8.664;2022-09-30T12:29:57;21.70;31.00
13086;DHT22;6609;49.882;8.664;2022-09-30T12:33:09;21.40;30.80
13086;DHT22;6609;49.882;8.664;2022-09-30T12:36:06;21.20;31.20
13086;DHT22;6609;49.882;8.664;2022-09-30T12:41:46;20.90;32.00
13086;DHT22;6609;49.882;8.664;2022-09-30T12:44:48;21.00;32.40
13086;DHT22;6609;49.882;8.664;2022-09-30T12:52:23;21.00;31.00
13086;DHT22;6609;49.882;8.664;2022-09-30T12:54:54;20.90;30.20
13086;DHT22;6609;49.882;8.664;2022-09-30T12:57:24;20.70;30.00
13086;DHT22;6609;49.882;8.664;2022-09-30T13:08:40;20.00;31.30
13086;DHT22;6609;49.882;8.664;2022-09-30T13:14:10;19.80;31.30
13086;DHT22;6609;49.882;8.664;2022-09-30T13:19:53;19.60;32.40
13086;DHT22;6609;49.882;8.664;2022-09-30T13:22:41;19.50;32.90
13086;DHT22;6609;49.882;8.664;2022-09-30T13:25:13;19.70;34.40
13086;DHT22;6609;49.882;8.664;2022-09-30T13:27:42;19.40;35.10
13086;DHT22;6609;49.882;8.664;2022-09-30T13:30:34;19.40;33.80
13086;DHT22;6609;49.882;8.664;2022-09-30T18:50:30;12.40;62.10
13086;DHT22;6609;49.882;8.664;2022-09-30T18:52:58;12.50;61.90
13086;DHT22;6609;49.882;8.664;2022-09-30T18:55:25;12.50;63.80
13086;DHT22;6609;49.882;8.664;2022-09-30T18:57:54;12.40;65.70
13086;DHT22;6609;49.882;8.664;2022-09-30T19:00:21;12.50;67.80
13086;DHT22;6609;49.882;8.664;2022-09-30T19:02:50;12.40;69.10
13086;DHT22;6609;49.882;8.664;2022-09-30T19:05:17;12.40;69.80
13086;DHT22;6609;49.882;8.664;2022-09-30T19:07:46;12.40;70.20
13086;DHT22;6609;49.882;8.664;2022-09-30T19:10:13;12.40;70.40
13086;DHT22;6609;49.882;8.664;2022-09-30T19:12:40;12.50;70.40
13086;DHT22;6609;49.882;8.664;2022-09-30T19:15:10;12.50;70.40
13086;DHT22;6609;49.882;8.664;2022-09-30T19:17:38;12.50;70.30
13086;DHT22;6609;49.882;8.664;2022-09-30T19:20:05;12.60;70.00
13086;DHT22;6609;49.882;8.664;2022-09-30T19:22:33;12.60;69.60
13086;DHT22;6609;49.882;8.664;2022-09-30T19:25:02;12.70;69.30
13086;DHT22;6609;49.882;8.664;2022-09-30T19:27:30;12.70;69.60
13086;DHT22;6609;49.882;8.664;2022-09-30T19:29:57;12.80;68.60
13086;DHT22;6609;49.882;8.664;2022-09-30T19:32:25;12.80;68.40
13086;DHT22;6609;49.882;8.664;2022-09-30T19:34:53;12.80;68.10
13086;DHT22;6609;49.882;8.664;2022-09-30T19:37:23;12.80;67.90
13086;DHT22;6609;49.882;8.664;2022-09-30T19:39:49;12.90;67.70
13086;DHT22;6609;49.882;8.664;2022-09-30T19:42:17;12.80;67.20
13086;DHT22;6609;49.882;8.664;2022-09-30T19:44:46;12.80;67.10
13086;DHT22;6609;49.882;8.664;2022-09-30T19:47:13;12.80;66.90
13086;DHT22;6609;49.882;8.664;2022-09-30T19:49:40;12.80;66.90
13086;DHT22;6609;49.882;8.664;2022-09-30T19:52:07;12.80;66.80
13086;DHT22;6609;49.882;8.664;2022-09-30T19:54:33;12.80;66.70
13086;DHT22;6609;49.882;8.664;2022-09-30T19:57:02;12.80;66.60
13086;DHT22;6609;49.882;8.664;2022-09-30T19:59:30;12.80;66.70
13086;DHT22;6609;49.882;8.664;2022-09-30T20:01:56;12.70;67.40
13086;DHT22;6609;49.882;8.664;2022-09-30T20:04:24;12.70;66.80
13086;DHT22;6609;49.882;8.664;2022-09-30T20:06:51;12.70;66.90
13086;DHT22;6609;49.882;8.664;2022-09-30T20:09:19;12.60;66.80
13086;DHT22;6609;49.882;8.664;2022-09-30T20:11:45;12.60;66.90
13086;DHT22;6609;49.882;8.664;2022-09-30T20:14:12;12.60;67.10
13086;DHT22;6609;49.882;8.664;2022-09-30T20:16:57;12.60;67.00
13086;DHT22;6609;49.882;8.664;2022-09-30T20:19:24;12.60;67.10
13086;DHT22;6609;49.882;8.664;2022-09-30T20:21:51;12.60;67.10
13086;DHT22;6609;49.882;8.664;2022-09-30T20:24:19;12.60;67.10
13086;DHT22;6609;49.882;8.664;2022-09-30T20:26:46;12.60;67.00
13086;DHT22;6609;49.882;8.664;2022-09-30T20:29:14;12.60;66.90
13086;DHT22;6609;49.882;8.664;2022-09-30T20:31:44;12.60;67.00
13086;DHT22;6609;49.882;8.664;2022-09-30T20:34:13;12.60;67.20
13086;DHT22;6609;49.882;8.664;2022-09-30T20:36:41;12.50;67.20
13086;DHT22;6609;49.882;8.664;2022-09-30T20:39:08;12.60;67.40
13086;DHT22;6609;49.882;8.664;2022-09-30T20:41:37;12.60;67.30
13086;DHT22;6609;49.882;8.664;2022-09-30T20:44:05;12.60;67.40
13086;DHT22;6609;49.882;8.664;2022-09-30T20:46:33;12.60;67.40
13086;DHT22;6609;49.882;8.664;2022-09-30T20:49:01;12.60;67.50
13086;DHT22;6609;49.882;8.664;2022-09-30T20:51:29;12.70;67.50
13086;DHT22;6609;49.882;8.664;2022-09-30T20:53:57;13.10;67.80
13086;DHT22;6609;49.882;8.664;2022-09-30T20:56:26;12.70;67.60
13086;DHT22;6609;49.882;8.664;2022-09-30T20:58:53;12.80;67.80
13086;DHT22;6609;49.882;8.664;2022-09-30T21:01:21;12.70;67.70
13086;DHT22;6609;49.882;8.664;2022-09-30T21:03:50;12.70;67.80
13086;DHT22;6609;49.882;8.664;2022-09-30T21:06:19;12.60;68.00
13086;DHT22;6609;49.882;8.664;2022-09-30T21:08:47;12.70;68.10
13086;DHT22;6609;49.882;8.664;2022-09-30T21:11:16;12.70;68.20
13086;DHT22;6609;49.882;8.664;2022-09-30T21:13:44;12.70;68.20
13086;DHT22;6609;49.882;8.664;2022-09-30T21:16:13;12.60;68.20
13086;DHT22;6609;49.882;8.664;2022-09-30T21:18:40;12.60;68.40
13086;DHT22;6609;49.882;8.664;2022-09-30T21:21:10;12.60;68.50
13086;DHT22;6609;49.882;8.664;2022-09-30T21:23:38;12.60;68.50
13086;DHT22;6609;49.882;8.664;2022-09-30T21:26:08;12.60;68.50
13086;DHT22;6609;49.882;8.664;2022-09-30T21:28:36;12.60;68.70
13086;DHT22;6609;49.882;8.664;2022-09-30T21:31:03;12.60;68.80
13086;DHT22;6609;49.882;8.664;2022-09-30T21:33:31;12.50;69.00
13086;DHT22;6609;49.882;8.664;2022-09-30T21:35:59;12.50;69.10
13086;DHT22;6609;49.882;8.664;2022-09-30T21:38:26;12.80;69.50
13086;DHT22;6609;49.882;8.664;2022-09-30T21:40:56;12.50;69.50
13086;DHT22;6609;49.882;8.664;2022-09-30T21:43:28;12.40;69.60
13086;DHT22;6609;49.882;8.664;2022-09-30T21:45:56;12.40;69.80
13086;DHT22;6609;49.882;8.664;2022-09-30T21:48:24;12.40;69.90
13086;DHT22;6609;49.882;8.664;2022-09-30T21:50:51;12.70;70.30
13086;DHT22;6609;49.882;8.664;2022-09-30T21:53:17;12.30;70.20
13086;DHT22;6609;49.882;8.664;2022-09-30T21:55:46;12.30;70.20
13086;DHT22;6609;49.882;8.664;2022-09-30T21:58:13;12.30;70.20
13086;DHT22;6609;49.882;8.664;2022-09-30T22:00:41;12.30;70.20
13086;DHT22;6609;49.882;8.664;2022-09-30T22:03:08;12.40;70.60
13086;DHT22;6609;49.882;8.664;2022-09-30T22:05:35;12.20;70.50
13086;DHT22;6609;49.882;8.664;2022-09-30T22:08:02;12.20;70.70
13086;DHT22;6609;49.882;8.664;2022-09-30T22:10:29;12.20;70.90
13086;DHT22;6609;49.882;8.664;2022-09-30T22:12:56;12.20;71.30
13086;DHT22;6609;49.882;8.664;2022-09-30T22:15:22;12.10;71.30
13086;DHT22;6609;49.882;8.664;2022-09-30T22:17:50;12.20;71.30
13086;DHT22;6609;49.882;8.664;2022-09-30T22:20:17;12.20;71.50
13086;DHT22;6609;49.882;8.664;2022-09-30T22:22:45;12.10;71.10
13086;DHT22;6609;49.882;8.664;2022-09-30T22:25:13;12.10;71.10
13086;DHT22;6609;49.882;8.664;2022-09-30T22:27:41;12.10;71.20
13086;DHT22;6609;49.882;8.664;2022-09-30T22:30:08;12.10;71.10
13086;DHT22;6609;49.882;8.664;2022-09-30T22:32:35;12.10;71.20
13086;DHT22;6609;49.882;8.664;2022-09-30T22:35:04;12.10;71.20
13086;DHT22;6609;49.882;8.664;2022-09-30T22:37:48;12.10;71.30
13086;DHT22;6609;49.882;8.664;2022-09-30T22:40:33;12.10;71.30
13086;DHT22;6609;49.882;8.664;2022-09-30T22:43:00;12.00;71.10
13086;DHT22;6609;49.882;8.664;2022-09-30T22:45:28;12.40;71.50
13086;DHT22;6609;49.882;8.664;2022-09-30T22:47:54;12.10;71.40
13086;DHT22;6609;49.882;8.664;2022-09-30T22:50:24;12.10;71.30
13086;DHT22;6609;49.882;8.664;2022-09-30T22:52:53;12.10;71.30
13086;DHT22;6609;49.882;8.664;2022-09-30T22:55:20;12.10;71.10
13086;DHT22;6609;49.882;8.664;2022-09-30T22:57:46;12.10;71.10
13086;DHT22;6609;49.882;8.664;2022-09-30T23:00:13;12.10;71.00
13086;DHT22;6609;49.882;8.664;2022-09-30T23:02:40;12.10;70.80
13086;DHT22;6609;49.882;8.664;2022-09-30T23:05:07;12.00;70.60
13086;DHT22;6609;49.882;8.664;2022-09-30T23:07:35;12.10;70.70
13086;DHT22;6609;49.882;8.664;2022-09-30T23:10:02;12.00;70.60
13086;DHT22;6609;49.882;8.664;2022-09-30T23:12:29;12.00;70.70
13086;DHT22;6609;49.882;8.664;2022-09-30T23:14:56;12.00;70.80
13086;DHT22;6609;49.882;8.664;2022-09-30T23:17:23;12.10;70.90
13086;DHT22;6609;49.882;8.664;2022-09-30T23:19:51;12.10;70.90
13086;DHT22;6609;49.882;8.664;2022-09-30T23:22:17;12.10;70.90
13086;DHT22;6609;49.882;8.664;2022-09-30T23:24:46;12.10;70.70
13086;DHT22;6609;49.882;8.664;2022-09-30T23:27:12;12.00;70.60
13086;DHT22;6609;49.882;8.664;2022-09-30T23:29:39;12.00;70.50
13086;DHT22;6609;49.882;8.664;2022-09-30T23:32:06;12.00;70.40
13086;DHT22;6609;49.882;8.664;2022-09-30T23:34:32;12.00;70.40
13086;DHT22;6609;49.882;8.664;2022-09-30T23:36:59;12.00;70.30
13086;DHT22;6609;49.882;8.664;2022-09-30T23:39:26;12.00;70.20
13086;DHT22;6609;49.882;8.664;2022-09-30T23:41:56;12.00;70.20
13086;DHT22;6609;49.882;8.664;2022-09-30T23:44:23;12.00;70.10
13086;DHT22;6609;49.882;8.664;2022-09-30T23:46:53;12.10;70.20
13086;DHT22;6609;49.882;8.664;2022-09-30T23:49:37;12.20;70.20
13086;DHT22;6609;49.882;8.664;2022-09-30T23:52:06;12.00;70.00
13086;DHT22;6609;49.882;8.664;2022-09-30T23:54:33;12.00;70.10
13086;DHT22;6609;49.882;8.664;2022-09-30T23:57:01;12.20;70.30
13086;DHT22;6609;49.882;8.664;2022-09-30T23:59:28;12.10;70.10
